Mountain Lake, Minnesota
Current Conditions -  °F | °C
As of 9:34 PM on Saturday 22 Nov 2014 (Local Time) from KMWM Reporting Station
Haze Haze  
Wind Chill: 37°   Ceiling: 600
Heat Index: 45°   Visibility: 4mi
Dew Point: 43°   Wind: 16mph
Humidity: 93%   Direction: 180°S
Pressure: 29.48"   Gusts: 29mph
Location:  43.94°N, 94.93°W
Report Text: KMWM 230334Z AUTO 18014G25KT 4SM BR OVC006 07/06 A2948 RMK AO2
Loading
Personal Weather Stations






























Interactive Weather Map New forecast layout! Learn more

10-Day Weather Forecast

Advertisements
Track Severe Weather on mobile